Flugplatz Trier-Föhren

Für EDRT sind keine METAR/TAF Berichte vorhanden.
Es werden die Flugwettermeldungen vom Flugplatz Spangdahlem Air Base in 14 km Entfernung angezeigt.

Bericht für ETAD

vom 23.08. um 12:56 UTC

Wind 8 kt aus 90°

Sichtweite 10 km oder mehr

keine Wolken

Temperatur 26.0°C

Taupunkt 10.6°C

Luftfeuchtigkeit 38%

Luftdruck 1025 hPa

ETAD 231256Z AUTO 09008KT 9999 CLR 26/11 A3026 RMK AO2 SLP227 T02600106

Prognose für ETAD

vom 23.08. um 00:00 UTC

Zwischen 00:00 UTC und 00:00 UTC

Wind 6 kt aus 90°

Sichtweite 10 km oder mehr

keine Wolken


Zwischen 00:00 und 00:00 UTC übergehend zu

Wind 4 kt aus 30°

Sichtweite 10 km oder mehr

keine Wolken


Am 24.08. zwischen 00:00 und 00:00 UTC übergehend zu

Wind 7 kt aus 90°

Sichtweite 10 km oder mehr

gering bewölkt in 3500 ft

TAF ETAD 231200Z 2312/2418 09006KT 9999 SKC QNH3025INS BECMG 2323/2324 03004KT 9999 SKC QNH3018INS BECMG 2407/2408 09007KT 9999 FEW035 QNH3016INS TX25/2316Z TN11/2404Z
Impressum